createdAt,value
2022-09-11T00:01:40.403Z,15.15
2022-09-11T00:04:09.348Z,15.73
2022-09-11T00:06:37.477Z,14.55
2022-09-11T00:09:07.455Z,14.35
2022-09-11T00:11:37.436Z,13.73
2022-09-11T00:14:05.587Z,15.07
2022-09-11T00:16:36.077Z,14.80
2022-09-11T00:19:08.180Z,13.93
2022-09-11T00:21:36.528Z,14.77
2022-09-11T00:24:05.670Z,13.10
2022-09-11T00:26:33.839Z,13.15
2022-09-11T00:29:02.464Z,12.57
2022-09-11T00:31:32.339Z,12.68
2022-09-11T00:34:00.580Z,13.18
2022-09-11T00:36:32.495Z,13.18
2022-09-11T00:39:01.246Z,12.32
2022-09-11T00:41:33.400Z,12.52
2022-09-11T00:44:05.587Z,12.05
2022-09-11T00:46:38.515Z,11.25
2022-09-11T00:49:18.720Z,11.75
2022-09-11T00:51:53.385Z,11.27
2022-09-11T00:54:26.404Z,11.98
2022-09-11T00:56:55.566Z,12.98
2022-09-11T00:59:27.036Z,13.00
2022-09-11T01:01:55.697Z,12.05
2022-09-11T01:04:24.797Z,15.80
2022-09-11T01:06:57.582Z,14.43
2022-09-11T01:09:28.833Z,18.17
2022-09-11T01:12:05.031Z,17.35
2022-09-11T01:14:42.788Z,16.92
2022-09-11T01:17:21.890Z,16.98
2022-09-11T01:20:20.338Z,15.60
2022-09-11T01:23:20.666Z,15.40
2022-09-11T01:26:18.392Z,14.85
2022-09-11T01:28:53.441Z,15.02
2022-09-11T01:31:26.838Z,19.80
2022-09-11T01:34:00.899Z,19.67
2022-09-11T01:36:36.472Z,19.88
2022-09-11T01:39:05.757Z,19.60
2022-09-11T01:41:41.740Z,19.48
2022-09-11T01:44:17.319Z,20.58
2022-09-11T01:46:47.577Z,21.40
2022-09-11T01:49:20.633Z,26.05
2022-09-11T01:51:52.586Z,26.15
2022-09-11T01:54:24.807Z,26.75
2022-09-11T01:56:56.581Z,26.83
2022-09-11T01:59:35.748Z,25.83
2022-09-11T02:02:07.652Z,27.67
2022-09-11T02:04:42.044Z,28.10
2022-09-11T02:07:13.863Z,25.83
2022-09-11T02:09:48.443Z,26.88
2022-09-11T02:12:20.338Z,26.38
2022-09-11T02:14:53.121Z,23.88
2022-09-11T02:17:28.161Z,22.38
2022-09-11T02:19:59.037Z,22.27
2022-09-11T02:22:27.604Z,22.17
2022-09-11T02:24:56.582Z,20.63
2022-09-11T02:27:27.463Z,20.45
2022-09-11T02:29:59.499Z,19.50
2022-09-11T02:32:32.424Z,19.23
2022-09-11T02:35:01.312Z,18.52
2022-09-11T02:37:47.237Z,18.38
2022-09-11T02:40:29.013Z,18.02
2022-09-11T02:43:17.826Z,17.67
2022-09-11T02:45:59.009Z,17.48
2022-09-11T02:48:39.934Z,16.98
2022-09-11T02:51:18.941Z,17.45
2022-09-11T02:53:54.100Z,18.08
2022-09-11T02:56:29.768Z,18.52
2022-09-11T02:59:02.839Z,18.67
2022-09-11T03:01:47.287Z,17.08
2022-09-11T03:04:15.494Z,17.88
2022-09-11T03:06:44.165Z,18.55
2022-09-11T03:09:12.861Z,19.55
2022-09-11T03:11:40.830Z,20.83
2022-09-11T03:14:08.942Z,21.02
2022-09-11T03:16:41.592Z,19.20
2022-09-11T03:19:12.097Z,20.23
2022-09-11T03:21:40.366Z,19.20
2022-09-11T03:24:09.956Z,19.95
2022-09-11T03:26:38.999Z,19.92
2022-09-11T03:29:08.459Z,19.73
2022-09-11T03:31:39.252Z,21.10
2022-09-11T03:34:10.400Z,19.92
2022-09-11T03:36:38.838Z,22.33
2022-09-11T03:39:06.939Z,23.10
2022-09-11T03:41:35.105Z,23.48
2022-09-11T03:44:03.715Z,26.05
2022-09-11T03:46:33.023Z,27.25
2022-09-11T03:49:02.035Z,24.98
2022-09-11T03:51:33.147Z,25.77
2022-09-11T03:54:01.674Z,28.33
2022-09-11T03:56:31.896Z,28.25
2022-09-11T03:59:01.189Z,28.85
2022-09-11T04:01:30.563Z,29.30
2022-09-11T04:03:58.852Z,29.52
2022-09-11T04:06:36.907Z,28.70
2022-09-11T04:09:07.060Z,33.00
2022-09-11T04:11:38.958Z,34.72
2022-09-11T04:14:13.086Z,36.08
2022-09-11T04:16:43.520Z,37.05
2022-09-11T04:19:13.400Z,36.72
2022-09-11T04:21:44.219Z,36.90
2022-09-11T04:24:12.732Z,36.72
2022-09-11T04:26:40.839Z,38.33
2022-09-11T04:29:17.772Z,36.83
2022-09-11T04:31:47.550Z,37.10
2022-09-11T04:34:17.151Z,40.28
2022-09-11T04:36:46.969Z,42.42
2022-09-11T04:39:20.626Z,42.45
2022-09-11T04:41:49.902Z,40.67
2022-09-11T04:44:20.778Z,42.20
2022-09-11T04:46:49.076Z,41.50
2022-09-11T04:49:18.859Z,43.72
2022-09-11T04:51:49.523Z,45.55
2022-09-11T04:54:21.289Z,47.10
2022-09-11T04:56:49.988Z,49.00
2022-09-11T04:59:22.062Z,48.88
2022-09-11T05:01:59.363Z,50.97
2022-09-11T05:04:30.489Z,51.22
2022-09-11T05:06:59.967Z,51.42
2022-09-11T05:09:28.229Z,52.67
2022-09-11T05:11:57.639Z,52.65
2022-09-11T05:14:30.284Z,52.30
2022-09-11T05:16:58.532Z,51.55
2022-09-11T05:19:29.324Z,49.75
2022-09-11T05:21:57.479Z,47.92
2022-09-11T05:24:26.996Z,48.10
2022-09-11T05:26:58.862Z,45.85
2022-09-11T05:29:32.411Z,47.30
2022-09-11T05:32:04.103Z,47.25
2022-09-11T05:34:32.115Z,45.30
2022-09-11T05:37:02.379Z,45.33
2022-09-11T05:39:35.335Z,46.30
2022-09-11T05:42:05.411Z,48.10
2022-09-11T05:44:37.097Z,46.75
2022-09-11T05:47:05.660Z,44.75
2022-09-11T05:49:33.726Z,46.95
2022-09-11T05:52:03.824Z,45.50
2022-09-11T05:54:36.113Z,43.50
2022-09-11T05:57:07.781Z,44.67
2022-09-11T05:59:39.143Z,42.90
2022-09-11T06:02:08.089Z,43.35
2022-09-11T06:04:42.900Z,38.58
2022-09-11T06:07:11.140Z,41.47
2022-09-11T06:09:43.518Z,42.88
2022-09-11T06:12:12.848Z,40.00
2022-09-11T06:14:44.578Z,41.13
2022-09-11T06:17:13.446Z,41.60
2022-09-11T06:19:41.920Z,41.85
2022-09-11T06:22:10.702Z,41.17
2022-09-11T06:24:43.866Z,42.85
2022-09-11T06:27:12.211Z,41.88
2022-09-11T06:29:44.987Z,42.00
2022-09-11T06:32:13.303Z,43.42
2022-09-11T06:34:42.047Z,43.65
2022-09-11T06:37:13.841Z,44.35
2022-09-11T06:39:43.655Z,44.83
2022-09-11T06:42:19.242Z,42.65
2022-09-11T06:44:50.838Z,43.90
2022-09-11T06:47:19.446Z,42.60
2022-09-11T06:49:47.654Z,44.85
2022-09-11T06:52:21.703Z,46.63
2022-09-11T06:55:04.353Z,44.38
2022-09-11T06:57:41.963Z,44.72
2022-09-11T07:00:16.171Z,46.75
2022-09-11T07:02:46.345Z,45.65
2022-09-11T07:05:54.944Z,43.97
2022-09-11T07:08:25.827Z,44.30
2022-09-11T07:10:56.085Z,45.55
2022-09-11T07:13:24.680Z,46.45
2022-09-11T07:16:01.351Z,46.40
2022-09-11T07:18:34.155Z,44.38
2022-09-11T07:21:05.176Z,45.13
2022-09-11T07:23:34.808Z,45.60
2022-09-11T07:26:09.474Z,43.33
2022-09-11T07:28:38.663Z,42.70
2022-09-11T07:31:10.549Z,46.65
2022-09-11T07:33:39.584Z,46.58
2022-09-11T07:36:27.330Z,46.22
2022-09-11T07:38:57.670Z,43.78
2022-09-11T07:41:34.818Z,43.70
2022-09-11T07:44:07.587Z,43.92
2022-09-11T07:46:36.360Z,42.30
2022-09-11T07:49:10.093Z,43.35
2022-09-11T07:51:42.689Z,42.75
2022-09-11T07:54:13.516Z,42.53
2022-09-11T07:56:44.505Z,44.17
2022-09-11T07:59:13.360Z,41.55
2022-09-11T08:01:45.926Z,42.60
2022-09-11T08:04:18.143Z,41.10
2022-09-11T08:06:46.400Z,40.97
2022-09-11T08:09:22.947Z,40.38
2022-09-11T08:11:58.778Z,40.63
2022-09-11T08:14:28.561Z,41.25
2022-09-11T08:17:02.269Z,39.80
2022-09-11T08:19:32.863Z,38.85
2022-09-11T08:22:03.357Z,38.33
2022-09-11T08:24:36.657Z,41.72
2022-09-11T08:27:08.044Z,40.90
2022-09-11T08:29:40.733Z,42.10
2022-09-11T08:32:09.330Z,42.30
2022-09-11T08:34:38.474Z,42.15
2022-09-11T08:37:07.078Z,41.50
2022-09-11T08:39:37.021Z,42.67
2022-09-11T08:42:14.188Z,37.70
2022-09-11T08:44:48.010Z,38.17
2022-09-11T08:47:26.644Z,39.85
2022-09-11T08:50:00.355Z,38.33
2022-09-11T08:52:30.251Z,38.17
2022-09-11T08:55:00.369Z,38.45
2022-09-11T08:57:42.601Z,37.08
2022-09-11T09:00:20.737Z,37.63
2022-09-11T09:03:12.585Z,36.92
2022-09-11T09:05:51.708Z,36.00
2022-09-11T09:08:38.432Z,37.22
2022-09-11T09:11:24.277Z,37.60
2022-09-11T09:14:09.774Z,37.28
2022-09-11T09:16:49.078Z,35.53
2022-09-11T09:19:21.758Z,37.28
2022-09-11T09:22:07.352Z,38.08
2022-09-11T09:24:43.746Z,36.72
2022-09-11T09:27:17.252Z,38.85
2022-09-11T09:29:51.857Z,37.10
2022-09-11T09:32:26.741Z,34.65
2022-09-11T09:34:59.970Z,36.47
2022-09-11T09:37:29.918Z,35.92
2022-09-11T09:40:03.551Z,38.05
2022-09-11T09:42:59.844Z,35.10
2022-09-11T09:45:41.369Z,35.42
2022-09-11T09:48:11.385Z,31.88
2022-09-11T09:50:41.661Z,31.20
2022-09-11T09:53:16.970Z,31.42
2022-09-11T09:55:47.604Z,29.83
2022-09-11T09:58:15.810Z,27.80
2022-09-11T10:00:46.064Z,29.80
2022-09-11T10:03:44.050Z,29.52
2022-09-11T10:06:14.980Z,28.98
2022-09-11T10:08:44.472Z,28.63
2022-09-11T10:11:13.200Z,26.98
2022-09-11T10:13:43.702Z,25.58
2022-09-11T10:16:23.637Z,24.95
2022-09-11T10:18:51.852Z,25.48
2022-09-11T10:21:46.049Z,25.63
2022-09-11T10:24:24.170Z,25.60
2022-09-11T10:26:55.829Z,23.58
2022-09-11T10:29:27.319Z,24.80
2022-09-11T10:31:59.261Z,24.40
2022-09-11T10:34:29.302Z,25.85
2022-09-11T10:37:01.866Z,25.10
2022-09-11T10:39:32.544Z,22.45
2022-09-11T10:42:12.460Z,22.08
2022-09-11T10:44:44.639Z,22.23
2022-09-11T10:47:18.319Z,21.05
2022-09-11T10:49:47.082Z,19.90
2022-09-11T10:52:22.052Z,19.85
2022-09-11T10:55:00.009Z,18.55
2022-09-11T10:57:34.234Z,17.33
2022-09-11T11:00:07.784Z,17.55
2022-09-11T11:02:40.825Z,15.77
2022-09-11T11:05:15.763Z,16.13
2022-09-11T11:08:07.583Z,16.13
2022-09-11T11:10:51.173Z,15.27
2022-09-11T11:13:36.046Z,15.27
2022-09-11T11:16:11.035Z,14.80
2022-09-11T11:19:02.081Z,14.27
2022-09-11T11:21:44.555Z,13.00
2022-09-11T11:24:25.816Z,11.90
2022-09-11T11:27:10.668Z,12.57
2022-09-11T11:30:00.665Z,11.38
2022-09-11T11:32:54.908Z,13.05
2022-09-11T11:35:26.774Z,11.90
2022-09-11T11:38:04.506Z,12.48
2022-09-11T11:40:37.663Z,11.45
2022-09-11T11:43:07.628Z,10.68
2022-09-11T11:45:40.345Z,11.15
2022-09-11T11:48:15.625Z,10.13
2022-09-11T11:50:48.360Z,10.52
2022-09-11T11:53:22.264Z,10.30
2022-09-11T11:55:59.866Z,9.48
2022-09-11T11:58:39.884Z,8.65
2022-09-11T12:01:15.916Z,9.68
2022-09-11T12:03:48.829Z,8.88
2022-09-11T12:06:18.071Z,9.60
2022-09-11T12:08:46.482Z,9.82
2022-09-11T12:11:17.610Z,11.05
2022-09-11T12:13:48.861Z,9.65
2022-09-11T12:16:21.120Z,8.98
2022-09-11T12:19:17.384Z,9.23
2022-09-11T12:22:40.680Z,9.30
2022-09-11T12:26:04.396Z,9.40
2022-09-11T12:28:34.608Z,9.10
2022-09-11T12:31:05.993Z,9.43
2022-09-11T12:33:56.761Z,9.60
2022-09-11T12:36:36.111Z,10.45
2022-09-11T12:39:15.885Z,9.32
2022-09-11T12:41:43.740Z,8.98
2022-09-11T12:44:32.424Z,9.30
2022-09-11T12:47:13.550Z,7.82
2022-09-11T12:49:45.173Z,7.68
2022-09-11T12:52:26.323Z,8.50
2022-09-11T12:54:55.405Z,8.82
2022-09-11T12:57:30.776Z,7.45
2022-09-11T13:00:07.435Z,7.93
2022-09-11T13:02:37.639Z,7.80
2022-09-11T13:05:16.781Z,8.50
2022-09-11T13:07:48.147Z,7.90
2022-09-11T13:10:30.370Z,7.00
2022-09-11T13:13:02.434Z,7.55
2022-09-11T13:15:41.769Z,7.50
2022-09-11T13:18:33.053Z,7.38
2022-09-11T13:21:04.682Z,9.07
2022-09-11T13:23:34.586Z,9.35
2022-09-11T13:26:05.615Z,8.43
2022-09-11T13:28:43.713Z,9.55
2022-09-11T13:31:19.423Z,8.38
2022-09-11T13:33:52.193Z,8.93
2022-09-11T13:36:23.074Z,9.95
2022-09-11T13:38:55.996Z,9.80
2022-09-11T13:41:29.927Z,9.93
2022-09-11T13:44:01.002Z,8.98
2022-09-11T13:46:34.799Z,9.70
2022-09-11T13:49:27.637Z,10.80
2022-09-11T13:51:56.800Z,9.82
2022-09-11T13:54:29.599Z,9.82
2022-09-11T13:57:13.426Z,9.38
2022-09-11T13:59:46.457Z,9.82
2022-09-11T14:02:31.102Z,9.65
2022-09-11T14:05:10.871Z,10.02
2022-09-11T14:07:47.493Z,10.23
2022-09-11T14:10:22.195Z,10.15
2022-09-11T14:12:55.464Z,10.05
2022-09-11T14:15:36.136Z,9.80
2022-09-11T14:18:07.510Z,9.30
2022-09-11T14:20:40.764Z,9.93
2022-09-11T14:23:18.116Z,10.70
2022-09-11T14:26:04.273Z,10.27
2022-09-11T14:28:42.867Z,9.50
2022-09-11T14:31:13.782Z,10.20
2022-09-11T14:33:43.167Z,9.63
2022-09-11T14:36:19.460Z,8.52
2022-09-11T14:38:48.449Z,8.73
2022-09-11T14:41:16.821Z,8.85
2022-09-11T14:43:48.872Z,8.45
2022-09-11T14:46:17.412Z,8.85
2022-09-11T14:48:46.776Z,9.35
2022-09-11T14:51:15.036Z,8.63
2022-09-11T14:53:43.866Z,8.52
2022-09-11T14:56:11.756Z,8.07
2022-09-11T14:58:40.494Z,8.02
2022-09-11T15:01:09.947Z,8.30
2022-09-11T15:03:38.767Z,8.10
2022-09-11T15:06:15.427Z,7.85
2022-09-11T15:08:43.239Z,8.30
2022-09-11T15:11:10.999Z,8.55
2022-09-11T15:13:52.617Z,8.95
2022-09-11T15:16:26.638Z,9.23
2022-09-11T15:18:54.604Z,9.10
2022-09-11T15:21:23.760Z,8.65
2022-09-11T15:23:51.681Z,8.50
2022-09-11T15:26:19.968Z,8.25
2022-09-11T15:28:50.713Z,9.40
2022-09-11T15:31:19.390Z,8.30
2022-09-11T15:33:51.386Z,7.82
2022-09-11T15:36:21.244Z,8.48
2022-09-11T15:38:54.140Z,8.68
2022-09-11T15:41:22.915Z,8.55
2022-09-11T15:43:51.437Z,8.60
2022-09-11T15:46:21.035Z,9.18
2022-09-11T15:48:49.776Z,9.50
2022-09-11T15:51:19.823Z,9.40
2022-09-11T15:53:48.099Z,8.63
2022-09-11T15:56:23.839Z,8.48
2022-09-11T15:58:53.594Z,8.85
2022-09-11T16:01:22.651Z,8.40
2022-09-11T16:03:51.379Z,8.98
2022-09-11T16:06:19.948Z,8.98
2022-09-11T16:08:48.976Z,8.98
2022-09-11T16:11:18.538Z,9.15
2022-09-11T16:13:49.795Z,8.57
2022-09-11T16:16:23.567Z,9.07
2022-09-11T16:18:51.813Z,8.82
2022-09-11T16:21:20.868Z,8.07
2022-09-11T16:23:53.727Z,8.35
2022-09-11T16:26:25.085Z,9.07
2022-09-11T16:28:53.115Z,9.27
2022-09-11T16:31:21.003Z,8.75
2022-09-11T16:33:51.888Z,8.60
2022-09-11T16:36:22.484Z,7.63
2022-09-11T16:38:52.525Z,8.32
2022-09-11T16:41:22.294Z,8.73
2022-09-11T16:43:53.207Z,7.90
2022-09-11T16:46:23.046Z,8.10
2022-09-11T16:48:54.957Z,8.48
2022-09-11T16:51:25.224Z,7.85
2022-09-11T16:53:54.082Z,8.02
2022-09-11T16:56:24.439Z,8.15
2022-09-11T16:58:54.414Z,7.30
2022-09-11T17:01:23.800Z,8.55
2022-09-11T17:03:53.651Z,7.90
2022-09-11T17:06:22.852Z,8.00
2022-09-11T17:08:52.043Z,7.57
2022-09-11T17:11:22.187Z,8.18
2022-09-11T17:13:50.480Z,8.38
2022-09-11T17:16:21.677Z,8.10
2022-09-11T17:18:51.108Z,8.35
2022-09-11T17:21:18.967Z,7.75
2022-09-11T17:23:47.064Z,7.72
2022-09-11T17:26:18.167Z,7.93
2022-09-11T17:28:47.388Z,8.00
2022-09-11T17:31:17.553Z,8.18
2022-09-11T17:33:47.657Z,8.23
2022-09-11T17:36:17.502Z,8.10
2022-09-11T17:38:46.266Z,8.38
2022-09-11T17:41:14.450Z,8.73
2022-09-11T17:43:42.257Z,8.93
2022-09-11T17:46:12.553Z,9.65
2022-09-11T17:48:41.084Z,8.02
2022-09-11T17:51:12.488Z,8.45
2022-09-11T17:53:42.801Z,9.25
2022-09-11T17:56:13.177Z,8.77
2022-09-11T17:58:42.679Z,8.98
2022-09-11T18:01:14.792Z,8.85
2022-09-11T18:03:44.652Z,9.52
2022-09-11T18:06:21.231Z,9.77
2022-09-11T18:08:49.029Z,9.13
2022-09-11T18:11:16.784Z,8.60
2022-09-11T18:13:44.664Z,9.32
2022-09-11T18:16:18.858Z,9.18
2022-09-11T18:18:49.660Z,9.07
2022-09-11T18:21:18.860Z,8.88
2022-09-11T18:23:47.065Z,9.63
2022-09-11T18:26:22.986Z,9.40
2022-09-11T18:28:51.604Z,8.95
2022-09-11T18:31:20.018Z,8.80
2022-09-11T18:33:53.103Z,9.02
2022-09-11T18:36:23.437Z,9.02
2022-09-11T18:38:51.647Z,8.82
2022-09-11T18:41:24.064Z,9.13
2022-09-11T18:43:55.985Z,9.55
2022-09-11T18:46:25.252Z,9.65
2022-09-11T18:48:53.045Z,9.43
2022-09-11T18:51:22.267Z,9.40
2022-09-11T18:53:51.818Z,9.10
2022-09-11T18:56:22.680Z,9.00
2022-09-11T18:58:52.380Z,9.15
2022-09-11T19:01:27.280Z,9.07
2022-09-11T19:03:55.385Z,9.18
2022-09-11T19:06:28.250Z,8.98
2022-09-11T19:08:57.219Z,9.75
2022-09-11T19:11:26.988Z,8.85
2022-09-11T19:13:56.787Z,9.32
2022-09-11T19:16:35.716Z,9.50
2022-09-11T19:19:08.122Z,9.45
2022-09-11T19:21:44.587Z,9.40
2022-09-11T19:24:13.013Z,9.23
2022-09-11T19:26:54.209Z,10.02
2022-09-11T19:29:24.418Z,9.57
2022-09-11T19:32:04.025Z,10.07
2022-09-11T19:34:34.984Z,10.00
2022-09-11T19:37:06.440Z,9.57
2022-09-11T19:39:34.138Z,9.95
2022-09-11T19:42:02.896Z,10.40
2022-09-11T19:44:34.413Z,10.40
2022-09-11T19:47:02.466Z,11.45
2022-09-11T19:49:30.286Z,10.75
2022-09-11T19:51:58.175Z,10.88
2022-09-11T19:54:27.246Z,10.75
2022-09-11T19:56:55.540Z,10.70
2022-09-11T19:59:23.435Z,10.75
2022-09-11T20:01:51.558Z,10.18
2022-09-11T20:04:19.497Z,11.20
2022-09-11T20:09:30.497Z,10.80
2022-09-11T20:12:01.413Z,10.55
2022-09-11T20:14:30.351Z,11.57
2022-09-11T20:16:58.156Z,11.45
2022-09-11T20:19:26.036Z,10.60
2022-09-11T20:21:53.810Z,11.68
2022-09-11T20:24:21.521Z,11.80
2022-09-11T20:26:50.169Z,10.85
2022-09-11T20:29:19.358Z,11.70
2022-09-11T20:31:50.963Z,12.00
2022-09-11T20:34:22.072Z,11.85
2022-09-11T20:36:49.835Z,11.35
2022-09-11T20:39:19.955Z,11.15
2022-09-11T20:41:47.794Z,11.30
2022-09-11T20:44:15.649Z,10.38
2022-09-11T20:46:47.318Z,11.77
2022-09-11T20:49:15.289Z,11.43
2022-09-11T20:51:43.213Z,12.10
2022-09-11T20:54:11.024Z,11.50
2022-09-11T20:56:38.912Z,11.80
2022-09-11T20:59:07.153Z,11.90
2022-09-11T21:01:35.245Z,11.48
2022-09-11T21:04:05.896Z,11.65
2022-09-11T21:06:35.317Z,11.63
2022-09-11T21:09:11.725Z,11.98
2022-09-11T21:11:41.699Z,11.63
2022-09-11T21:14:10.522Z,11.73
2022-09-11T21:16:38.340Z,12.82
2022-09-11T21:19:08.833Z,12.73
2022-09-11T21:21:40.121Z,13.13
2022-09-11T21:24:11.639Z,13.80
2022-09-11T21:26:39.726Z,11.93
2022-09-11T21:29:10.139Z,12.38
2022-09-11T21:31:38.099Z,12.50
2022-09-11T21:34:08.044Z,12.65
2022-09-11T21:36:36.915Z,12.13
2022-09-11T21:39:05.312Z,13.35
2022-09-11T21:41:33.043Z,13.07
2022-09-11T21:44:00.754Z,13.30
2022-09-11T21:46:29.484Z,12.95
2022-09-11T21:48:57.325Z,12.40
2022-09-11T21:51:26.408Z,13.52
2022-09-11T21:53:58.175Z,12.95
2022-09-11T21:56:29.335Z,13.32
2022-09-11T21:58:57.730Z,13.48
2022-09-11T22:01:26.654Z,12.35
2022-09-11T22:03:54.960Z,12.70
2022-09-11T22:06:23.697Z,12.95
2022-09-11T22:08:53.597Z,13.50
2022-09-11T22:11:21.894Z,13.32
2022-09-11T22:13:50.088Z,12.25
2022-09-11T22:16:19.858Z,12.82
2022-09-11T22:18:50.608Z,13.07
2022-09-11T22:21:18.926Z,12.85
2022-09-11T22:23:47.243Z,13.23
2022-09-11T22:26:18.476Z,12.10
2022-09-11T22:28:47.321Z,12.98
2022-09-11T22:31:17.822Z,13.68
2022-09-11T22:33:46.026Z,12.73
2022-09-11T22:36:16.711Z,14.07
2022-09-11T22:38:44.892Z,13.40
2022-09-11T22:41:13.307Z,12.98
2022-09-11T22:43:42.997Z,12.48
2022-09-11T22:46:12.431Z,12.88
2022-09-11T22:48:40.904Z,13.02
2022-09-11T22:51:09.325Z,13.82
2022-09-11T22:53:39.522Z,13.27
2022-09-11T22:56:08.012Z,13.13
2022-09-11T22:58:38.383Z,13.55
2022-09-11T23:01:09.450Z,13.38
2022-09-11T23:03:37.855Z,15.38
2022-09-11T23:06:24.256Z,14.32
2022-09-11T23:08:52.602Z,13.70
2022-09-11T23:11:21.990Z,13.68
2022-09-11T23:13:52.234Z,13.60
2022-09-11T23:16:25.201Z,13.90
2022-09-11T23:18:55.719Z,13.25
2022-09-11T23:21:24.234Z,12.60
2022-09-11T23:23:54.508Z,13.23
2022-09-11T23:26:23.927Z,13.45
2022-09-11T23:28:52.164Z,14.65
2022-09-11T23:31:24.772Z,13.57
2022-09-11T23:33:55.701Z,13.57
2022-09-11T23:36:24.943Z,13.27
2022-09-11T23:38:53.450Z,12.38
2022-09-11T23:41:22.424Z,13.10
2022-09-11T23:43:51.123Z,12.63
2022-09-11T23:46:19.647Z,13.77
2022-09-11T23:48:50.720Z,14.25
2022-09-11T23:51:19.267Z,12.85
2022-09-11T23:53:49.233Z,14.30
2022-09-11T23:56:20.753Z,13.32
2022-09-11T23:58:49.249Z,12.50
